Terminal Aerodrome Forecast
Issued by NWS

Home | Current Version | Previous Version | Text Only | Print | Product List | Glossary On
Versions: 1 2 3 4 5 6 7 8 9 10 11 12 13 14 15 16 17 18 19 20 21 22 23 24 25 26
000
FTUS44 KLIX 221120
TAFHDC
TAF
KHDC 221120Z 2212/2312 00000KT P6SM VCTS SCT100CB
     FM221700 VRB03KT P6SM VCTS BKN100CB
     FM222000 19004KT P6SM BKN100 PROB30 2221/2301 4SM -TSRA
      OVC040CB
     FM230100 22005KT P6SM SCT110=

USA.gov is the U.S. government's official web portal to all federal, state and local government web resources and services.